sensor_id;sensor_type;location;lat;lon;timestamp;temperature;humidity
48996;DHT22;34806;53.882;10.656;2022-08-03T00:02:16;23.20;58.60
48996;DHT22;34806;53.882;10.656;2022-08-03T00:04:44;23.10;58.60
48996;DHT22;34806;53.882;10.656;2022-08-03T00:07:14;23.10;58.90
48996;DHT22;34806;53.882;10.656;2022-08-03T00:09:43;23.10;59.00
48996;DHT22;34806;53.882;10.656;2022-08-03T00:12:11;23.10;58.30
48996;DHT22;34806;53.882;10.656;2022-08-03T00:14:40;23.00;58.40
48996;DHT22;34806;53.882;10.656;2022-08-03T00:17:09;23.00;58.10
48996;DHT22;34806;53.882;10.656;2022-08-03T00:19:37;23.00;58.20
48996;DHT22;34806;53.882;10.656;2022-08-03T00:22:05;22.90;58.00
48996;DHT22;34806;53.882;10.656;2022-08-03T00:24:35;22.90;58.20
48996;DHT22;34806;53.882;10.656;2022-08-03T00:27:03;22.80;58.30
48996;DHT22;34806;53.882;10.656;2022-08-03T00:29:31;22.90;58.50
48996;DHT22;34806;53.882;10.656;2022-08-03T00:32:19;22.80;58.80
48996;DHT22;34806;53.882;10.656;2022-08-03T00:34:50;22.80;58.80
48996;DHT22;34806;53.882;10.656;2022-08-03T00:37:24;22.70;58.80
48996;DHT22;34806;53.882;10.656;2022-08-03T00:40:10;22.70;58.40
48996;DHT22;34806;53.882;10.656;2022-08-03T00:42:50;22.70;58.20
48996;DHT22;34806;53.882;10.656;2022-08-03T00:45:20;22.70;58.70
48996;DHT22;34806;53.882;10.656;2022-08-03T00:47:49;22.60;58.20
48996;DHT22;34806;53.882;10.656;2022-08-03T00:50:18;22.60;58.80
48996;DHT22;34806;53.882;10.656;2022-08-03T00:52:49;22.50;59.30
48996;DHT22;34806;53.882;10.656;2022-08-03T00:55:20;22.50;58.80
48996;DHT22;34806;53.882;10.656;2022-08-03T00:57:48;22.50;59.30
48996;DHT22;34806;53.882;10.656;2022-08-03T01:00:19;22.30;59.60
48996;DHT22;34806;53.882;10.656;2022-08-03T01:02:49;22.40;59.40
48996;DHT22;34806;53.882;10.656;2022-08-03T01:05:17;22.30;60.20
48996;DHT22;34806;53.882;10.656;2022-08-03T01:07:56;22.30;59.60
48996;DHT22;34806;53.882;10.656;2022-08-03T01:10:36;22.30;59.80
48996;DHT22;34806;53.882;10.656;2022-08-03T01:13:20;22.30;60.00
48996;DHT22;34806;53.882;10.656;2022-08-03T01:16:17;22.30;59.90
48996;DHT22;34806;53.882;10.656;2022-08-03T01:18:54;22.30;59.80
48996;DHT22;34806;53.882;10.656;2022-08-03T01:21:28;22.30;60.20
48996;DHT22;34806;53.882;10.656;2022-08-03T01:24:06;22.20;60.10
48996;DHT22;34806;53.882;10.656;2022-08-03T01:26:52;22.20;60.40
48996;DHT22;34806;53.882;10.656;2022-08-03T01:32:36;22.00;61.00
48996;DHT22;34806;53.882;10.656;2022-08-03T01:35:31;21.90;61.30
48996;DHT22;34806;53.882;10.656;2022-08-03T01:38:08;21.80;61.70
48996;DHT22;34806;53.882;10.656;2022-08-03T01:40:39;22.00;61.30
48996;DHT22;34806;53.882;10.656;2022-08-03T01:43:09;22.00;61.50
48996;DHT22;34806;53.882;10.656;2022-08-03T01:45:42;21.80;62.20
48996;DHT22;34806;53.882;10.656;2022-08-03T01:48:12;21.70;62.50
48996;DHT22;34806;53.882;10.656;2022-08-03T01:50:44;21.70;62.90
48996;DHT22;34806;53.882;10.656;2022-08-03T01:53:14;21.60;63.00
48996;DHT22;34806;53.882;10.656;2022-08-03T01:55:44;21.80;62.90
48996;DHT22;34806;53.882;10.656;2022-08-03T01:58:14;21.60;63.60
48996;DHT22;34806;53.882;10.656;2022-08-03T02:00:45;21.70;63.10
48996;DHT22;34806;53.882;10.656;2022-08-03T02:03:16;21.40;64.50
48996;DHT22;34806;53.882;10.656;2022-08-03T02:05:46;21.40;63.80
48996;DHT22;34806;53.882;10.656;2022-08-03T02:08:28;21.20;65.00
48996;DHT22;34806;53.882;10.656;2022-08-03T02:10:57;20.90;66.20
48996;DHT22;34806;53.882;10.656;2022-08-03T02:13:27;21.00;65.80
48996;DHT22;34806;53.882;10.656;2022-08-03T02:15:57;21.00;65.90
48996;DHT22;34806;53.882;10.656;2022-08-03T02:18:26;21.10;65.30
48996;DHT22;34806;53.882;10.656;2022-08-03T02:20:56;20.90;66.20
48996;DHT22;34806;53.882;10.656;2022-08-03T02:23:26;21.20;65.90
48996;DHT22;34806;53.882;10.656;2022-08-03T02:25:57;21.10;65.70
48996;DHT22;34806;53.882;10.656;2022-08-03T02:28:31;21.10;66.00
48996;DHT22;34806;53.882;10.656;2022-08-03T02:31:05;20.90;67.20
48996;DHT22;34806;53.882;10.656;2022-08-03T02:33:41;20.80;67.30
48996;DHT22;34806;53.882;10.656;2022-08-03T02:36:10;21.00;66.40
48996;DHT22;34806;53.882;10.656;2022-08-03T02:38:42;20.90;66.50
48996;DHT22;34806;53.882;10.656;2022-08-03T02:41:14;20.90;66.50
48996;DHT22;34806;53.882;10.656;2022-08-03T02:43:45;21.00;66.20
48996;DHT22;34806;53.882;10.656;2022-08-03T02:46:37;21.10;66.60
48996;DHT22;34806;53.882;10.656;2022-08-03T02:49:06;21.00;66.90
48996;DHT22;34806;53.882;10.656;2022-08-03T02:51:55;21.10;67.20
48996;DHT22;34806;53.882;10.656;2022-08-03T02:54:25;20.80;67.90
48996;DHT22;34806;53.882;10.656;2022-08-03T02:56:57;20.90;67.80
48996;DHT22;34806;53.882;10.656;2022-08-03T02:59:27;20.90;67.80
48996;DHT22;34806;53.882;10.656;2022-08-03T03:02:00;20.60;68.90
48996;DHT22;34806;53.882;10.656;2022-08-03T03:04:30;20.60;68.70
48996;DHT22;34806;53.882;10.656;2022-08-03T03:06:59;20.60;68.70
48996;DHT22;34806;53.882;10.656;2022-08-03T03:09:31;20.80;67.80
48996;DHT22;34806;53.882;10.656;2022-08-03T03:12:10;20.80;68.00
48996;DHT22;34806;53.882;10.656;2022-08-03T03:14:39;21.00;67.40
48996;DHT22;34806;53.882;10.656;2022-08-03T03:17:10;20.80;68.30
48996;DHT22;34806;53.882;10.656;2022-08-03T03:19:39;20.80;67.70
48996;DHT22;34806;53.882;10.656;2022-08-03T03:22:08;20.70;68.30
48996;DHT22;34806;53.882;10.656;2022-08-03T03:24:39;20.80;68.90
48996;DHT22;34806;53.882;10.656;2022-08-03T03:27:08;20.80;67.90
48996;DHT22;34806;53.882;10.656;2022-08-03T03:29:42;20.80;68.10
48996;DHT22;34806;53.882;10.656;2022-08-03T03:32:13;20.80;68.00
48996;DHT22;34806;53.882;10.656;2022-08-03T03:34:41;20.60;68.80
48996;DHT22;34806;53.882;10.656;2022-08-03T03:37:10;20.80;69.20
48996;DHT22;34806;53.882;10.656;2022-08-03T03:39:38;20.70;69.50
48996;DHT22;34806;53.882;10.656;2022-08-03T03:42:06;20.50;70.40
48996;DHT22;34806;53.882;10.656;2022-08-03T03:44:35;20.60;69.40
48996;DHT22;34806;53.882;10.656;2022-08-03T03:47:03;20.50;70.60
48996;DHT22;34806;53.882;10.656;2022-08-03T03:49:35;20.20;71.90
48996;DHT22;34806;53.882;10.656;2022-08-03T03:52:04;20.10;72.00
48996;DHT22;34806;53.882;10.656;2022-08-03T03:54:39;20.40;70.40
48996;DHT22;34806;53.882;10.656;2022-08-03T03:57:07;20.40;70.60
48996;DHT22;34806;53.882;10.656;2022-08-03T03:59:40;20.20;72.00
48996;DHT22;34806;53.882;10.656;2022-08-03T04:02:10;20.10;72.80
48996;DHT22;34806;53.882;10.656;2022-08-03T04:04:40;20.00;73.60
48996;DHT22;34806;53.882;10.656;2022-08-03T04:07:26;19.90;73.50
48996;DHT22;34806;53.882;10.656;2022-08-03T04:10:15;20.20;72.00
48996;DHT22;34806;53.882;10.656;2022-08-03T04:13:04;20.30;72.30
48996;DHT22;34806;53.882;10.656;2022-08-03T04:15:34;20.20;73.10
48996;DHT22;34806;53.882;10.656;2022-08-03T04:18:03;20.30;72.70
48996;DHT22;34806;53.882;10.656;2022-08-03T04:20:34;20.30;72.60
48996;DHT22;34806;53.882;10.656;2022-08-03T04:23:05;20.60;71.80
48996;DHT22;34806;53.882;10.656;2022-08-03T04:25:42;20.60;71.90
48996;DHT22;34806;53.882;10.656;2022-08-03T04:28:12;20.60;71.60
48996;DHT22;34806;53.882;10.656;2022-08-03T04:30:58;20.70;71.20
48996;DHT22;34806;53.882;10.656;2022-08-03T04:33:26;20.80;71.40
48996;DHT22;34806;53.882;10.656;2022-08-03T04:36:00;20.90;71.50
48996;DHT22;34806;53.882;10.656;2022-08-03T04:38:30;21.00;71.10
48996;DHT22;34806;53.882;10.656;2022-08-03T04:41:00;21.10;70.60
48996;DHT22;34806;53.882;10.656;2022-08-03T04:43:28;21.10;70.10
48996;DHT22;34806;53.882;10.656;2022-08-03T04:45:58;21.30;69.70
48996;DHT22;34806;53.882;10.656;2022-08-03T04:48:27;21.30;69.10
48996;DHT22;34806;53.882;10.656;2022-08-03T04:50:55;21.30;69.60
48996;DHT22;34806;53.882;10.656;2022-08-03T04:53:25;21.40;68.80
48996;DHT22;34806;53.882;10.656;2022-08-03T04:55:53;21.40;68.30
48996;DHT22;34806;53.882;10.656;2022-08-03T04:58:21;21.50;67.80
48996;DHT22;34806;53.882;10.656;2022-08-03T05:00:49;21.60;66.90
48996;DHT22;34806;53.882;10.656;2022-08-03T05:03:17;21.60;66.80
48996;DHT22;34806;53.882;10.656;2022-08-03T05:05:50;21.70;66.80
48996;DHT22;34806;53.882;10.656;2022-08-03T05:08:29;21.70;67.00
48996;DHT22;34806;53.882;10.656;2022-08-03T05:10:57;21.80;66.30
48996;DHT22;34806;53.882;10.656;2022-08-03T05:13:25;21.80;66.00
48996;DHT22;34806;53.882;10.656;2022-08-03T05:15:53;21.80;66.30
48996;DHT22;34806;53.882;10.656;2022-08-03T05:18:21;21.80;67.30
48996;DHT22;34806;53.882;10.656;2022-08-03T05:20:49;21.80;66.30
48996;DHT22;34806;53.882;10.656;2022-08-03T05:23:17;21.80;65.90
48996;DHT22;34806;53.882;10.656;2022-08-03T05:25:47;21.90;65.90
48996;DHT22;34806;53.882;10.656;2022-08-03T05:28:16;21.90;65.60
48996;DHT22;34806;53.882;10.656;2022-08-03T05:30:44;21.90;65.40
48996;DHT22;34806;53.882;10.656;2022-08-03T05:33:12;21.90;65.40
48996;DHT22;34806;53.882;10.656;2022-08-03T05:35:40;21.90;65.20
48996;DHT22;34806;53.882;10.656;2022-08-03T05:38:28;22.00;65.20
48996;DHT22;34806;53.882;10.656;2022-08-03T05:41:02;22.00;65.10
48996;DHT22;34806;53.882;10.656;2022-08-03T05:43:49;22.00;65.00
48996;DHT22;34806;53.882;10.656;2022-08-03T05:46:18;22.10;65.00
48996;DHT22;34806;53.882;10.656;2022-08-03T05:48:47;22.10;64.90
48996;DHT22;34806;53.882;10.656;2022-08-03T05:51:14;22.10;64.70
48996;DHT22;34806;53.882;10.656;2022-08-03T05:53:43;22.10;64.70
48996;DHT22;34806;53.882;10.656;2022-08-03T05:56:13;22.10;64.70
48996;DHT22;34806;53.882;10.656;2022-08-03T05:58:43;22.20;65.00
48996;DHT22;34806;53.882;10.656;2022-08-03T06:01:12;22.20;64.60
48996;DHT22;34806;53.882;10.656;2022-08-03T06:03:40;22.20;64.60
48996;DHT22;34806;53.882;10.656;2022-08-03T06:06:08;22.30;64.50
48996;DHT22;34806;53.882;10.656;2022-08-03T06:08:37;22.20;64.50
48996;DHT22;34806;53.882;10.656;2022-08-03T06:11:05;22.30;64.50
48996;DHT22;34806;53.882;10.656;2022-08-03T06:13:35;22.30;64.50
48996;DHT22;34806;53.882;10.656;2022-08-03T06:16:04;22.40;64.40
48996;DHT22;34806;53.882;10.656;2022-08-03T06:18:32;22.30;64.50
48996;DHT22;34806;53.882;10.656;2022-08-03T06:21:00;22.30;64.30
48996;DHT22;34806;53.882;10.656;2022-08-03T06:23:42;22.40;64.40
48996;DHT22;34806;53.882;10.656;2022-08-03T06:26:25;22.40;64.40
48996;DHT22;34806;53.882;10.656;2022-08-03T06:28:55;22.40;64.40
48996;DHT22;34806;53.882;10.656;2022-08-03T06:31:25;22.40;64.50
48996;DHT22;34806;53.882;10.656;2022-08-03T06:34:00;22.50;64.40
48996;DHT22;34806;53.882;10.656;2022-08-03T06:36:48;22.50;64.30
48996;DHT22;34806;53.882;10.656;2022-08-03T06:39:18;22.50;64.30
48996;DHT22;34806;53.882;10.656;2022-08-03T06:41:50;22.50;64.50
48996;DHT22;34806;53.882;10.656;2022-08-03T06:44:20;22.50;64.70
48996;DHT22;34806;53.882;10.656;2022-08-03T06:46:48;22.50;64.20
48996;DHT22;34806;53.882;10.656;2022-08-03T06:49:17;22.50;64.50
48996;DHT22;34806;53.882;10.656;2022-08-03T06:51:45;22.50;64.70
48996;DHT22;34806;53.882;10.656;2022-08-03T06:54:32;22.50;64.50
48996;DHT22;34806;53.882;10.656;2022-08-03T06:57:00;22.50;64.60
48996;DHT22;34806;53.882;10.656;2022-08-03T06:59:29;22.60;64.60
48996;DHT22;34806;53.882;10.656;2022-08-03T07:02:17;22.60;64.40
48996;DHT22;34806;53.882;10.656;2022-08-03T07:04:46;22.60;65.90
48996;DHT22;34806;53.882;10.656;2022-08-03T07:07:14;22.60;65.00
48996;DHT22;34806;53.882;10.656;2022-08-03T07:09:43;22.60;64.70
48996;DHT22;34806;53.882;10.656;2022-08-03T07:12:25;22.70;65.00
48996;DHT22;34806;53.882;10.656;2022-08-03T07:14:55;22.70;65.00
48996;DHT22;34806;53.882;10.656;2022-08-03T07:17:29;22.70;64.90
48996;DHT22;34806;53.882;10.656;2022-08-03T07:19:57;22.80;64.80
48996;DHT22;34806;53.882;10.656;2022-08-03T07:22:26;22.80;64.80
48996;DHT22;34806;53.882;10.656;2022-08-03T07:24:54;22.80;64.80
48996;DHT22;34806;53.882;10.656;2022-08-03T07:27:22;22.80;64.60
48996;DHT22;34806;53.882;10.656;2022-08-03T07:29:53;22.90;64.20
48996;DHT22;34806;53.882;10.656;2022-08-03T07:32:23;22.90;64.30
48996;DHT22;34806;53.882;10.656;2022-08-03T07:34:51;22.90;64.00
48996;DHT22;34806;53.882;10.656;2022-08-03T07:37:25;22.90;64.00
48996;DHT22;34806;53.882;10.656;2022-08-03T07:39:53;22.90;63.70
48996;DHT22;34806;53.882;10.656;2022-08-03T07:42:22;23.00;64.40
48996;DHT22;34806;53.882;10.656;2022-08-03T07:44:50;23.00;63.70
48996;DHT22;34806;53.882;10.656;2022-08-03T07:47:19;23.00;63.70
48996;DHT22;34806;53.882;10.656;2022-08-03T07:49:48;23.00;63.50
48996;DHT22;34806;53.882;10.656;2022-08-03T07:52:16;23.00;63.40
48996;DHT22;34806;53.882;10.656;2022-08-03T07:55:14;23.00;63.40
48996;DHT22;34806;53.882;10.656;2022-08-03T07:57:42;23.10;63.50
48996;DHT22;34806;53.882;10.656;2022-08-03T08:00:15;23.10;63.50
48996;DHT22;34806;53.882;10.656;2022-08-03T08:02:45;23.10;63.30
48996;DHT22;34806;53.882;10.656;2022-08-03T08:05:13;23.10;63.30
48996;DHT22;34806;53.882;10.656;2022-08-03T08:07:42;23.20;63.40
48996;DHT22;34806;53.882;10.656;2022-08-03T08:10:16;23.10;64.20
48996;DHT22;34806;53.882;10.656;2022-08-03T08:12:44;23.20;63.50
48996;DHT22;34806;53.882;10.656;2022-08-03T08:15:13;23.20;63.10
48996;DHT22;34806;53.882;10.656;2022-08-03T08:17:42;23.20;63.10
48996;DHT22;34806;53.882;10.656;2022-08-03T08:20:16;23.20;63.10
48996;DHT22;34806;53.882;10.656;2022-08-03T08:22:55;23.20;63.10
48996;DHT22;34806;53.882;10.656;2022-08-03T08:25:27;23.30;63.10
48996;DHT22;34806;53.882;10.656;2022-08-03T08:27:56;23.20;62.90
48996;DHT22;34806;53.882;10.656;2022-08-03T08:30:47;23.20;62.70
48996;DHT22;34806;53.882;10.656;2022-08-03T08:33:15;23.20;62.70
48996;DHT22;34806;53.882;10.656;2022-08-03T08:35:51;23.30;62.70
48996;DHT22;34806;53.882;10.656;2022-08-03T08:38:20;23.30;62.60
48996;DHT22;34806;53.882;10.656;2022-08-03T08:40:49;23.30;62.70
48996;DHT22;34806;53.882;10.656;2022-08-03T08:43:17;23.30;62.50
48996;DHT22;34806;53.882;10.656;2022-08-03T08:45:46;23.40;62.60
48996;DHT22;34806;53.882;10.656;2022-08-03T08:48:17;23.30;62.40
48996;DHT22;34806;53.882;10.656;2022-08-03T08:50:53;23.40;62.40
48996;DHT22;34806;53.882;10.656;2022-08-03T08:53:21;23.30;62.40
48996;DHT22;34806;53.882;10.656;2022-08-03T08:55:54;23.40;62.40
48996;DHT22;34806;53.882;10.656;2022-08-03T08:58:29;23.40;62.30
48996;DHT22;34806;53.882;10.656;2022-08-03T09:01:01;23.40;62.50
48996;DHT22;34806;53.882;10.656;2022-08-03T09:03:32;23.40;62.30
48996;DHT22;34806;53.882;10.656;2022-08-03T09:06:01;23.30;62.60
48996;DHT22;34806;53.882;10.656;2022-08-03T09:08:31;23.40;62.70
48996;DHT22;34806;53.882;10.656;2022-08-03T09:10:59;23.40;62.40
48996;DHT22;34806;53.882;10.656;2022-08-03T09:13:27;23.40;62.50
48996;DHT22;34806;53.882;10.656;2022-08-03T09:16:12;23.40;62.60
48996;DHT22;34806;53.882;10.656;2022-08-03T09:18:41;23.50;62.40
48996;DHT22;34806;53.882;10.656;2022-08-03T09:21:17;23.50;62.30
48996;DHT22;34806;53.882;10.656;2022-08-03T09:24:02;23.50;62.40
48996;DHT22;34806;53.882;10.656;2022-08-03T09:26:36;23.50;62.30
48996;DHT22;34806;53.882;10.656;2022-08-03T09:29:06;23.50;62.20
48996;DHT22;34806;53.882;10.656;2022-08-03T09:31:42;23.50;62.20
48996;DHT22;34806;53.882;10.656;2022-08-03T09:34:14;23.50;62.20
48996;DHT22;34806;53.882;10.656;2022-08-03T09:36:45;23.50;62.20
48996;DHT22;34806;53.882;10.656;2022-08-03T09:39:15;23.50;62.30
48996;DHT22;34806;53.882;10.656;2022-08-03T09:41:45;23.50;62.30
48996;DHT22;34806;53.882;10.656;2022-08-03T09:44:13;23.50;62.40
48996;DHT22;34806;53.882;10.656;2022-08-03T09:46:54;23.60;63.00
48996;DHT22;34806;53.882;10.656;2022-08-03T09:49:23;23.60;62.30
48996;DHT22;34806;53.882;10.656;2022-08-03T09:51:53;23.60;62.30
48996;DHT22;34806;53.882;10.656;2022-08-03T09:54:42;23.60;62.20
48996;DHT22;34806;53.882;10.656;2022-08-03T09:57:20;23.60;62.20
48996;DHT22;34806;53.882;10.656;2022-08-03T09:59:50;23.60;62.20
48996;DHT22;34806;53.882;10.656;2022-08-03T10:02:31;23.60;62.20
48996;DHT22;34806;53.882;10.656;2022-08-03T10:05:00;23.60;62.30
48996;DHT22;34806;53.882;10.656;2022-08-03T10:07:29;23.60;62.30
48996;DHT22;34806;53.882;10.656;2022-08-03T10:09:59;23.60;62.30
48996;DHT22;34806;53.882;10.656;2022-08-03T10:12:47;23.60;62.30
48996;DHT22;34806;53.882;10.656;2022-08-03T10:15:16;23.60;62.20
48996;DHT22;34806;53.882;10.656;2022-08-03T10:18:04;23.70;62.40
48996;DHT22;34806;53.882;10.656;2022-08-03T10:20:36;23.70;62.20
48996;DHT22;34806;53.882;10.656;2022-08-03T10:23:07;23.70;62.20
48996;DHT22;34806;53.882;10.656;2022-08-03T10:25:38;23.70;62.20
48996;DHT22;34806;53.882;10.656;2022-08-03T10:28:10;23.70;62.20
48996;DHT22;34806;53.882;10.656;2022-08-03T10:30:40;23.70;62.40
48996;DHT22;34806;53.882;10.656;2022-08-03T10:33:16;23.70;62.10
48996;DHT22;34806;53.882;10.656;2022-08-03T10:36:06;23.80;62.20
48996;DHT22;34806;53.882;10.656;2022-08-03T10:38:39;23.70;62.20
48996;DHT22;34806;53.882;10.656;2022-08-03T10:41:12;23.80;62.20
48996;DHT22;34806;53.882;10.656;2022-08-03T10:43:45;23.80;62.20
48996;DHT22;34806;53.882;10.656;2022-08-03T10:46:17;23.80;62.30
48996;DHT22;34806;53.882;10.656;2022-08-03T10:48:46;23.70;62.20
48996;DHT22;34806;53.882;10.656;2022-08-03T10:51:15;23.80;62.30
48996;DHT22;34806;53.882;10.656;2022-08-03T10:53:44;23.80;62.20
48996;DHT22;34806;53.882;10.656;2022-08-03T10:56:39;23.80;62.20
48996;DHT22;34806;53.882;10.656;2022-08-03T10:59:57;23.80;62.20
48996;DHT22;34806;53.882;10.656;2022-08-03T11:05:43;23.90;62.20
48996;DHT22;34806;53.882;10.656;2022-08-03T11:08:25;23.90;62.10
48996;DHT22;34806;53.882;10.656;2022-08-03T11:10:58;23.90;62.10
48996;DHT22;34806;53.882;10.656;2022-08-03T11:13:27;23.90;62.20
48996;DHT22;34806;53.882;10.656;2022-08-03T11:16:00;23.90;62.20
48996;DHT22;34806;53.882;10.656;2022-08-03T11:18:32;23.90;62.20
48996;DHT22;34806;53.882;10.656;2022-08-03T11:21:01;23.90;62.10
48996;DHT22;34806;53.882;10.656;2022-08-03T11:23:43;23.90;62.10
48996;DHT22;34806;53.882;10.656;2022-08-03T11:26:33;23.90;62.10
48996;DHT22;34806;53.882;10.656;2022-08-03T11:29:27;23.90;62.80
48996;DHT22;34806;53.882;10.656;2022-08-03T11:31:55;23.90;62.10
48996;DHT22;34806;53.882;10.656;2022-08-03T11:34:24;23.90;62.30
48996;DHT22;34806;53.882;10.656;2022-08-03T11:37:17;23.90;62.50
48996;DHT22;34806;53.882;10.656;2022-08-03T11:39:52;23.90;62.50
48996;DHT22;34806;53.882;10.656;2022-08-03T11:42:41;23.90;62.30
48996;DHT22;34806;53.882;10.656;2022-08-03T11:45:13;24.00;62.20
48996;DHT22;34806;53.882;10.656;2022-08-03T11:47:42;24.00;62.90
48996;DHT22;34806;53.882;10.656;2022-08-03T11:50:17;24.00;62.00
48996;DHT22;34806;53.882;10.656;2022-08-03T11:52:48;24.00;62.00
48996;DHT22;34806;53.882;10.656;2022-08-03T11:55:17;24.00;62.00
48996;DHT22;34806;53.882;10.656;2022-08-03T11:57:49;24.10;62.00
48996;DHT22;34806;53.882;10.656;2022-08-03T12:00:37;24.10;61.90
48996;DHT22;34806;53.882;10.656;2022-08-03T12:03:08;24.10;61.90
48996;DHT22;34806;53.882;10.656;2022-08-03T12:05:40;24.10;62.50
48996;DHT22;34806;53.882;10.656;2022-08-03T12:08:29;24.10;61.90
48996;DHT22;34806;53.882;10.656;2022-08-03T12:10:59;24.20;61.90
48996;DHT22;34806;53.882;10.656;2022-08-03T12:13:38;24.20;62.00
48996;DHT22;34806;53.882;10.656;2022-08-03T12:16:26;24.10;61.90
48996;DHT22;34806;53.882;10.656;2022-08-03T12:18:56;24.20;62.00
48996;DHT22;34806;53.882;10.656;2022-08-03T12:21:25;24.10;62.00
48996;DHT22;34806;53.882;10.656;2022-08-03T12:23:55;24.10;62.10
48996;DHT22;34806;53.882;10.656;2022-08-03T12:26:25;24.20;62.10
48996;DHT22;34806;53.882;10.656;2022-08-03T12:28:54;24.20;62.00
48996;DHT22;34806;53.882;10.656;2022-08-03T12:31:22;24.20;62.10
48996;DHT22;34806;53.882;10.656;2022-08-03T12:33:55;24.20;62.10
48996;DHT22;34806;53.882;10.656;2022-08-03T12:36:25;24.20;62.10
48996;DHT22;34806;53.882;10.656;2022-08-03T12:38:54;24.20;62.10
48996;DHT22;34806;53.882;10.656;2022-08-03T12:41:28;24.20;62.00
48996;DHT22;34806;53.882;10.656;2022-08-03T12:43:57;24.20;61.80
48996;DHT22;34806;53.882;10.656;2022-08-03T12:46:30;24.30;61.70
48996;DHT22;34806;53.882;10.656;2022-08-03T12:49:04;24.30;61.80
48996;DHT22;34806;53.882;10.656;2022-08-03T12:51:34;24.30;61.80
48996;DHT22;34806;53.882;10.656;2022-08-03T12:54:03;24.30;61.80
48996;DHT22;34806;53.882;10.656;2022-08-03T12:56:31;24.30;61.80
48996;DHT22;34806;53.882;10.656;2022-08-03T13:01:44;24.30;61.80
48996;DHT22;34806;53.882;10.656;2022-08-03T13:04:26;24.40;61.90
48996;DHT22;34806;53.882;10.656;2022-08-03T13:07:00;24.40;61.80
48996;DHT22;34806;53.882;10.656;2022-08-03T13:09:30;24.40;61.70
48996;DHT22;34806;53.882;10.656;2022-08-03T13:12:08;24.60;61.20
48996;DHT22;34806;53.882;10.656;2022-08-03T13:14:38;24.70;60.70
48996;DHT22;34806;53.882;10.656;2022-08-03T13:17:06;24.80;60.50
48996;DHT22;34806;53.882;10.656;2022-08-03T13:19:36;24.80;60.40
48996;DHT22;34806;53.882;10.656;2022-08-03T13:22:11;24.80;60.30
48996;DHT22;34806;53.882;10.656;2022-08-03T13:24:41;24.80;60.30
48996;DHT22;34806;53.882;10.656;2022-08-03T13:29:59;24.20;62.00
48996;DHT22;34806;53.882;10.656;2022-08-03T13:32:27;24.10;63.10
48996;DHT22;34806;53.882;10.656;2022-08-03T13:34:55;24.00;63.30
48996;DHT22;34806;53.882;10.656;2022-08-03T13:37:23;24.00;63.50
48996;DHT22;34806;53.882;10.656;2022-08-03T13:39:52;24.00;63.50
48996;DHT22;34806;53.882;10.656;2022-08-03T13:42:27;24.00;63.50
48996;DHT22;34806;53.882;10.656;2022-08-03T13:44:56;23.90;63.60
48996;DHT22;34806;53.882;10.656;2022-08-03T13:47:26;23.90;63.80
48996;DHT22;34806;53.882;10.656;2022-08-03T13:49:54;24.00;63.30
48996;DHT22;34806;53.882;10.656;2022-08-03T13:52:26;24.10;63.00
48996;DHT22;34806;53.882;10.656;2022-08-03T13:54:54;24.20;63.00
48996;DHT22;34806;53.882;10.656;2022-08-03T13:57:23;24.20;62.80
48996;DHT22;34806;53.882;10.656;2022-08-03T14:00:13;24.20;62.80
48996;DHT22;34806;53.882;10.656;2022-08-03T14:02:54;24.20;63.00
48996;DHT22;34806;53.882;10.656;2022-08-03T14:05:30;24.20;62.90
48996;DHT22;34806;53.882;10.656;2022-08-03T14:07:58;24.20;62.70
48996;DHT22;34806;53.882;10.656;2022-08-03T14:10:31;24.20;62.80
48996;DHT22;34806;53.882;10.656;2022-08-03T14:12:59;24.20;62.80
48996;DHT22;34806;53.882;10.656;2022-08-03T14:15:27;24.20;62.90
48996;DHT22;34806;53.882;10.656;2022-08-03T14:17:56;24.20;62.90
48996;DHT22;34806;53.882;10.656;2022-08-03T14:20:25;24.20;62.90
48996;DHT22;34806;53.882;10.656;2022-08-03T14:23:04;24.20;63.00
48996;DHT22;34806;53.882;10.656;2022-08-03T14:25:33;24.20;63.00
48996;DHT22;34806;53.882;10.656;2022-08-03T14:28:16;24.20;62.90
48996;DHT22;34806;53.882;10.656;2022-08-03T14:30:45;24.20;62.90
48996;DHT22;34806;53.882;10.656;2022-08-03T14:33:15;24.20;62.90
48996;DHT22;34806;53.882;10.656;2022-08-03T14:35:43;24.20;62.80
48996;DHT22;34806;53.882;10.656;2022-08-03T14:38:11;24.20;62.90
48996;DHT22;34806;53.882;10.656;2022-08-03T14:40:39;24.20;62.90
48996;DHT22;34806;53.882;10.656;2022-08-03T14:43:07;24.20;63.00
48996;DHT22;34806;53.882;10.656;2022-08-03T14:45:35;24.10;63.20
48996;DHT22;34806;53.882;10.656;2022-08-03T14:48:04;24.20;63.30
48996;DHT22;34806;53.882;10.656;2022-08-03T14:50:53;24.10;63.40
48996;DHT22;34806;53.882;10.656;2022-08-03T14:53:22;24.20;63.20
48996;DHT22;34806;53.882;10.656;2022-08-03T14:55:50;24.30;63.10
48996;DHT22;34806;53.882;10.656;2022-08-03T14:58:19;24.20;63.20
48996;DHT22;34806;53.882;10.656;2022-08-03T15:00:49;24.30;63.00
48996;DHT22;34806;53.882;10.656;2022-08-03T15:03:17;24.30;63.00
48996;DHT22;34806;53.882;10.656;2022-08-03T15:05:49;24.30;63.10
48996;DHT22;34806;53.882;10.656;2022-08-03T15:08:18;24.30;63.30
48996;DHT22;34806;53.882;10.656;2022-08-03T15:10:46;24.30;63.20
48996;DHT22;34806;53.882;10.656;2022-08-03T15:13:15;24.30;64.00
48996;DHT22;34806;53.882;10.656;2022-08-03T15:15:43;24.30;63.30
48996;DHT22;34806;53.882;10.656;2022-08-03T15:18:11;24.30;63.20
48996;DHT22;34806;53.882;10.656;2022-08-03T15:20:40;24.30;63.00
48996;DHT22;34806;53.882;10.656;2022-08-03T15:23:12;24.30;63.10
48996;DHT22;34806;53.882;10.656;2022-08-03T15:25:43;24.30;63.30
48996;DHT22;34806;53.882;10.656;2022-08-03T15:28:32;24.30;63.40
48996;DHT22;34806;53.882;10.656;2022-08-03T15:31:03;24.30;63.30
48996;DHT22;34806;53.882;10.656;2022-08-03T15:33:31;24.30;63.20
48996;DHT22;34806;53.882;10.656;2022-08-03T15:36:01;24.30;63.20
48996;DHT22;34806;53.882;10.656;2022-08-03T15:38:29;24.40;63.20
48996;DHT22;34806;53.882;10.656;2022-08-03T15:40:58;24.40;63.00
48996;DHT22;34806;53.882;10.656;2022-08-03T15:43:26;24.40;63.20
48996;DHT22;34806;53.882;10.656;2022-08-03T15:45:54;24.40;63.20
48996;DHT22;34806;53.882;10.656;2022-08-03T15:48:44;24.40;63.20
48996;DHT22;34806;53.882;10.656;2022-08-03T15:51:13;24.40;63.20
48996;DHT22;34806;53.882;10.656;2022-08-03T15:53:41;24.40;63.40
48996;DHT22;34806;53.882;10.656;2022-08-03T15:56:10;24.40;63.20
48996;DHT22;34806;53.882;10.656;2022-08-03T15:58:44;24.40;63.20
48996;DHT22;34806;53.882;10.656;2022-08-03T16:01:32;24.50;63.30